WT9M-8 Weather Reports


Display with metric or nautical units.
time (UTC)temp
F
wind
direction
speed
MPH
gust
MPH
rain 1hr
in
rain 24hr
in
rain mn
in
humidity
%
barometer
mb
20200403085037 51 39 1.0 3.0 0.00 0.00 0.00 23 1001.4
20200403084028 51 80 2.0 4.0 0.00 0.00 0.00 17 1001.1
20200403083049 51 82 2.0 4.0 0.00 0.00 0.00 26 1001.1
20200403082039 51 94 1.0 5.0 0.00 0.00 0.00 28 1001.4
20200403081029 52 19 1.0 3.0 0.00 0.00 0.00 31 1001.4
20200403080046 52 43 0.0 1.0 0.00 0.00 0.00 32 1001.4
20200403075036 52 320 0.0 1.0 0.00 0.00 0.00 31 1001.4
20200403074027 52 59 1.0 3.0 0.00 0.00 0.00 28 1001.4
20200403073048 52 89 1.0 4.0 0.00 0.00 0.00 30 1001.4
20200403072039 52 25 0.0 1.0 0.00 0.00 0.00 32 1001.4
20200403071030 52 66 1.0 3.0 0.00 0.00 0.00 30 1001.4
20200403070021 52 66 1.0 5.0 0.00 0.00 0.00 30 1001.4
20200403065051 52 99 1.0 3.0 0.00 0.00 0.00 32 1001.6
20200403064033 53 98 1.0 3.0 0.00 0.00 0.00 35 1001.8
20200403063054 53 76 1.0 3.0 0.00 0.00 0.00 36 1001.8
20200403062215 54 75 0.0 3.0 0.00 0.00 0.00 41 1001.8
20200403061036 54 83 2.0 4.0 0.00 0.00 0.00 41 1001.8
20200403060028 54 81 2.0 5.0 0.00 0.00 0.00 43 1001.8
20200403055049 54 95 1.0 4.0 0.00 0.00 0.00 40 1001.8
20200403054040 52 114 4.0 8.0 0.00 0.00 0.00 31 1001.8
20200403053030 50 94 2.0 5.0 0.00 0.00 0.00 27 1001.8
20200403052049 50 113 2.0 5.0 0.00 0.00 0.00 28 1001.8
20200403051110 50 77 1.0 1.0 0.00 0.00 0.00 29 1001.8
20200403050031 49 90 2.0 4.0 0.00 0.00 0.00 32 1002.0
20200403045021 50 81 1.0 4.0 0.00 0.00 0.00 28 1002.1
20200403044042 50 99 2.0 4.0 0.00 0.00 0.00 37 1002.1
20200403043033 50 79 1.0 4.0 0.00 0.00 0.00 37 1001.8
20200403042054 50 76 0.0 3.0 0.00 0.00 0.00 40 1001.8
20200403041045 51 94 1.0 3.0 0.00 0.00 0.00 45 1001.8
20200403040035 51 111 1.0 3.0 0.00 0.00 0.00 48 1001.8
20200403035026 52 79 1.0 3.0 0.00 0.00 0.00 49 1001.8
20200403034047 53 156 1.0 3.0 0.00 0.00 0.00 50 1001.8
20200403033239 53 87 0.0 3.0 0.00 0.00 0.00 51 1001.8
20200403032030 54 97 1.0 4.0 0.00 0.00 0.00 52 1001.8
20200403031051 55 45 0.0 1.0 0.00 0.00 0.00 52 1001.4
20200403030042 55 171 1.0 4.0 0.00 0.00 0.00 51 1001.7
20200403025033 55 129 2.0 5.0 0.00 0.00 0.00 50 1001.4
20200403024024 54 101 4.0 10.0 0.00 0.00 0.00 46 1001.1
20200403023045 52 109 2.0 10.0 0.00 0.00 0.00 40 1001.1
20200403022036 51 85 2.0 5.0 0.00 0.00 0.00 35 1001.1
20200403021057 50 60 2.0 4.0 0.00 0.00 0.00 28 1001.1
20200403020048 49 71 2.0 4.0 0.00 0.00 0.00 34 1001.3
20200403015038 49 76 3.0 4.0 0.00 0.00 0.00 39 1001.4
20200403014029 49 88 3.0 5.0 0.00 0.00 0.00 48 1001.4
20200403013050 51 80 2.0 4.0 0.00 0.00 0.00 54 1001.2
20200403012041 53 92 2.0 4.0 0.00 0.00 0.00 55 1001.1
20200403011031 55 115 0.0 1.0 0.00 0.00 0.00 54 1001.1
20200403010052 55 115 2.0 7.0 0.00 0.00 0.00 54 1000.9
20200403005043 55 98 3.0 8.0 0.00 0.00 0.00 54 1000.8
20200403004034 57 82 2.0 4.0 0.00 0.00 0.00 52 1000.9
20200403003025 59 86 1.0 3.0 0.00 0.00 0.00 51 1000.8
20200403002043 60 83 1.0 1.0 0.00 0.00 0.00 49 1000.8
20200403001034 61 117 3.0 12.0 0.00 0.00 0.00 49 1000.8
20200403000053 63 101 4.0 11.0 0.00 0.00 0.00 47 1000.8
20200402235043 63 102 5.0 10.0 0.00 0.00 0.00 47 1000.8
20200402234034 64 107 9.0 12.0 0.00 0.00 0.00 46 1000.8
20200402233025 64 90 6.0 12.0 0.00 0.00 0.00 46 1000.8
20200402232044 64 107 5.0 8.0 0.00 0.00 0.00 46 1000.8
20200402231035 64 83 5.0 11.0 0.00 0.00 0.00 46 1000.8
20200402230026 64 91 6.0 11.0 0.00 0.00 0.00 46 1000.8
20200402225046 65 111 5.0 12.0 0.00 0.00 0.00 45 1000.8
20200402224037 65 85 5.0 12.0 0.00 0.00 0.00 45 1000.8
20200402223029 65 96 5.0 12.0 0.00 0.00 0.00 44 1000.8
20200402222049 66 139 5.0 11.0 0.00 0.00 0.00 44 1000.8
20200402221041 65 107 4.0 11.0 0.00 0.00 0.00 45 1001.0
20200402220032 64 79 6.0 12.0 0.00 0.00 0.00 46 1001.1
20200402215052 64 87 8.0 19.0 0.00 0.00 0.00 46 1001.1
20200402214043 64 109 5.0 10.0 0.00 0.00 0.00 46 1001.1
20200402213034 64 146 6.0 14.0 0.00 0.00 0.00 46 1001.1
20200402212025 64 95 7.0 14.0 0.00 0.00 0.00 46 1001.1
20200402211047 64 157 6.0 14.0 0.00 0.00 0.00 46 1001.1
20200402210038 64 165 6.0 11.0 0.00 0.00 0.00 46 1001.1
20200402205029 64 119 5.0 12.0 0.00 0.00 0.00 46 1001.3
20200402204048 64 102 3.0 7.0 0.00 0.00 0.00 46 1001.5
20200402203039 64 132 4.0 11.0 0.00 0.00 0.00 45 1001.5
20200402202026 65 149 7.0 14.0 0.00 0.00 0.00 44 1001.8
20200402201048 65 144 5.0 11.0 0.00 0.00 0.00 44 1001.8
20200402200115 65 88 6.0 15.0 0.00 0.00 0.00 44 1001.8
20200402195029 65 139 4.0 10.0 0.00 0.00 0.00 43 1001.8
20200402194050 66 107 6.0 10.0 0.00 0.00 0.00 42 1002.1
20200402193040 67 165 6.0 16.0 0.00 0.00 0.00 42 1002.2
20200402192029 67 138 3.0 10.0 0.00 0.00 0.00 41 1002.1
20200402191050 67 94 8.0 16.0 0.00 0.00 0.00 40 1002.3
20200402190041 67 86 10.0 16.0 0.00 0.00 0.00 41 1002.2
20200402185032 68 83 10.0 25.0 0.00 0.00 0.00 40 1002.2
20200402184053 67 92 8.0 18.0 0.00 0.00 0.00 40 1002.4
20200402183044 68 107 6.0 16.0 0.00 0.00 0.00 40 1002.1
20200402182035 66 103 7.0 14.0 0.00 0.00 0.00 42 1002.1
20200402181027 66 97 8.0 14.0 0.00 0.00 0.00 41 1002.1
20200402180047 67 103 7.0 12.0 0.00 0.00 0.00 40 1002.4
20200402175038 66 97 3.0 7.0 0.00 0.00 0.00 43 1002.4
20200402174029 65 100 6.0 11.0 0.00 0.00 0.00 41 1002.4
20200402173051 63 97 5.0 16.0 0.00 0.00 0.00 45 1002.8
20200402172042 62 95 11.0 19.0 0.00 0.00 0.00 46 1002.8
20200402171103 61 97 7.0 15.0 0.00 0.00 0.00 45 1003.1
20200402170049 61 91 5.0 10.0 0.00 0.00 0.00 47 1003.5
20200402165040 62 103 9.0 15.0 0.00 0.00 0.00 46 1003.5
20200402164031 60 100 5.0 11.0 0.00 0.00 0.00 49 1003.6
20200402163053 60 102 9.0 18.0 0.00 0.00 0.00 47 1003.8
20200402162043 60 92 9.0 18.0 0.00 0.00 0.00 48 1003.8
20200402161034 59 109 9.0 18.0 0.00 0.00 0.00 51 1004.1
20200402160024 58 102 8.0 18.0 0.00 0.00 0.00 50 1004.3
20200402155046 58 110 4.0 11.0 0.00 0.00 0.00 52 1004.5
20200402154037 56 153 6.0 11.0 0.00 0.00 0.00 53 1004.1
20200402153027 56 101 8.0 12.0 0.00 0.00 0.00 53 1003.8
20200402152048 55 90 3.0 8.0 0.00 0.00 0.00 54 1004.1
20200402151038 54 116 4.0 8.0 0.00 0.00 0.00 54 1004.5
20200402150056 53 81 5.0 7.0 0.00 0.00 0.00 55 1004.5
20200402145044 53 94 4.0 11.0 0.00 0.00 0.00 54 1004.7
20200402144036 52 89 5.0 14.0 0.00 0.00 0.00 54 1004.8
20200402143026 50 111 6.0 12.0 0.00 0.00 0.00 52 1004.8
20200402142044 50 112 4.0 11.0 0.00 0.00 0.00 49 1004.8
20200402141037 49 154 4.0 10.0 0.00 0.00 0.00 46 1005.1
20200402140057 48 75 5.0 10.0 0.00 0.00 0.00 40 1004.9
20200402135048 47 88 4.0 14.0 0.00 0.00 0.00 39 1005.0
20200402134039 46 84 5.0 14.0 0.00 0.00 0.00 35 1005.2
20200402133030 45 76 4.0 11.0 0.00 0.00 0.00 30 1005.2
20200402132052 44 93 5.0 11.0 0.00 0.00 0.00 25 1005.2
20200402131041 44 91 6.0 11.0 0.00 0.00 0.00 19 1005.2
20200402130032 43 83 3.0 8.0 0.00 0.00 0.00 11 1005.2
20200402125054 43 65 3.0 8.0 0.00 0.00 0.00 2 1005.2
20200402124045 41 77 4.0 10.0 0.00 0.00 0.00 1 1005.2
20200402123036 40 95 2.0 5.0 0.00 0.00 0.00 1 1005.2
20200402122026 40 104 1.0 4.0 0.00 0.00 0.00 1 1004.8
20200402121044 40 84 2.0 4.0 0.00 0.00 0.00 1 1004.8
20200402120034 40 353 1.0 3.0 0.00 0.00 0.00 1 1004.8
20200402115054 39 70 1.0 5.0 0.00 0.00 0.00 1 1004.8
20200402114044 39 76 3.0 5.0 0.00 0.00 0.00 1 1004.8
20200402113036 40 98 2.0 4.0 0.00 0.00 0.00 1 1004.8
20200402112024 40 100 2.0 5.0 0.00 0.00 0.00 5 1004.8
20200402111045 41 66 1.0 5.0 0.00 0.00 0.00 4 1004.8
20200402110036 41 89 2.0 5.0 0.00 0.00 0.00 2 1004.5
20200402105058 42 69 4.0 7.0 0.00 0.00 0.00 1 1004.5
20200402104049 42 94 4.0 8.0 0.00 0.00 0.00 1 1004.5
20200402103039 43 66 4.0 10.0 0.00 0.00 0.00 5 1004.5
20200402102031 43 102 3.0 10.0 0.00 0.00 0.00 1 1004.5
20200402101052 43 79 4.0 10.0 0.00 0.00 0.00 1 1004.1
20200402100043 43 81 4.0 8.0 0.00 0.00 0.00 1 1004.1
20200402095033 43 76 2.0 5.0 0.00 0.00 0.00 5 1004.1
20200402094054 43 110 2.0 5.0 0.00 0.00 0.00 3 1004.2
20200402093048 43 74 4.0 11.0 0.00 0.00 0.00 1 1004.1
20200402091027 43 82 2.0 5.0 0.00 0.00 0.00 6 1004.0
20200402090046 43 87 2.0 7.0 0.00 0.00 0.00 6 1003.8